createdAt,value
2022-08-29T00:00:33.626Z,96666.75
2022-08-29T00:03:08.368Z,96664.59
2022-08-29T00:05:40.078Z,96662.44
2022-08-29T00:08:11.815Z,96657.53
2022-08-29T00:10:41.724Z,96665.78
2022-08-29T00:13:13.484Z,96666.34
2022-08-29T00:15:44.977Z,96660.34
2022-08-29T00:18:15.236Z,96661.50
2022-08-29T00:20:44.388Z,96656.91
2022-08-29T00:23:14.027Z,96650.84
2022-08-29T00:25:43.339Z,96656.13
2022-08-29T00:28:13.347Z,96659.69
2022-08-29T00:30:43.157Z,96661.94
2022-08-29T00:33:12.177Z,96664.13
2022-08-29T00:35:43.213Z,96662.50
2022-08-29T00:38:14.957Z,96659.78
2022-08-29T00:40:51.731Z,96664.25
2022-08-29T00:43:25.798Z,96665.66
2022-08-29T00:46:04.005Z,96659.09
2022-08-29T00:48:36.473Z,96655.25
2022-08-29T00:51:09.289Z,96660.47
2022-08-29T00:53:42.259Z,96666.25
2022-08-29T00:56:14.181Z,96669.56
2022-08-29T00:58:47.759Z,96666.84
2022-08-29T01:01:17.165Z,96672.38
2022-08-29T01:03:48.634Z,96659.78
2022-08-29T01:06:17.337Z,96670.84
2022-08-29T01:08:46.305Z,96664.28
2022-08-29T01:11:36.238Z,96679.06
2022-08-29T01:14:06.630Z,96666.78
2022-08-29T01:16:37.145Z,96668.75
2022-08-29T01:19:13.182Z,96666.59
2022-08-29T01:21:48.619Z,96666.88
2022-08-29T01:24:37.134Z,96668.50
2022-08-29T01:27:05.468Z,96667.47
2022-08-29T01:29:34.850Z,96669.94
2022-08-29T01:32:03.344Z,96671.88
2022-08-29T01:34:32.514Z,96671.34
2022-08-29T01:37:03.013Z,96672.16
2022-08-29T01:39:35.938Z,96672.16
2022-08-29T01:42:07.745Z,96671.94
2022-08-29T01:44:37.485Z,96673.88
2022-08-29T01:47:07.190Z,96671.13
2022-08-29T01:49:40.760Z,96677.69
2022-08-29T01:52:10.301Z,96667.53
2022-08-29T01:54:41.746Z,96665.06
2022-08-29T01:57:13.079Z,96669.44
2022-08-29T01:59:43.310Z,96664.56
2022-08-29T02:02:17.318Z,96657.72
2022-08-29T02:04:48.882Z,96661.22
2022-08-29T02:07:19.504Z,96651.34
2022-08-29T02:09:49.800Z,96660.09
2022-08-29T02:12:20.843Z,96658.13
2022-08-29T02:14:49.423Z,96657.81
2022-08-29T02:17:18.971Z,96662.50
2022-08-29T02:19:47.548Z,96664.19
2022-08-29T02:22:17.801Z,96664.22
2022-08-29T02:24:46.289Z,96660.16
2022-08-29T02:27:16.838Z,96652.47
2022-08-29T02:29:45.281Z,96656.28
2022-08-29T02:32:15.914Z,96657.34
2022-08-29T02:34:47.528Z,96658.72
2022-08-29T02:37:17.991Z,96658.94
2022-08-29T02:39:46.650Z,96663.91
2022-08-29T02:42:16.853Z,96655.38
2022-08-29T02:44:45.622Z,96660.28
2022-08-29T02:47:14.386Z,96656.44
2022-08-29T02:49:43.765Z,96660.22
2022-08-29T02:52:13.363Z,96655.84
2022-08-29T02:54:41.702Z,96664.91
2022-08-29T02:57:10.955Z,96667.66
2022-08-29T02:59:40.630Z,96670.69
2022-08-29T03:02:10.054Z,96669.88
2022-08-29T03:04:38.657Z,96666.03
2022-08-29T03:07:06.975Z,96673.72
2022-08-29T03:09:36.318Z,96673.44
2022-08-29T03:12:05.173Z,96675.06
2022-08-29T03:14:34.466Z,96677.84
2022-08-29T03:17:04.254Z,96676.84
2022-08-29T03:19:37.388Z,96674.44
2022-08-29T03:22:06.455Z,96680.28
2022-08-29T03:24:36.025Z,96671.78
2022-08-29T03:27:05.389Z,96673.41
2022-08-29T03:29:34.192Z,96675.63
2022-08-29T03:32:05.311Z,96682.13
2022-08-29T03:34:34.214Z,96684.28
2022-08-29T03:37:02.539Z,96694.41
2022-08-29T03:39:32.186Z,96689.44
2022-08-29T03:42:00.565Z,96687.59
2022-08-29T03:44:29.580Z,96690.59
2022-08-29T03:46:58.031Z,96692.78
2022-08-29T03:49:28.833Z,96697.38
2022-08-29T03:51:57.639Z,96692.97
2022-08-29T03:54:26.054Z,96698.47
2022-08-29T03:56:54.853Z,96694.38
2022-08-29T03:59:24.229Z,96695.75
2022-08-29T04:01:53.353Z,96694.94
2022-08-29T04:04:39.826Z,96694.94
2022-08-29T04:07:13.161Z,96700.38
2022-08-29T04:09:43.154Z,96702.84
2022-08-29T04:12:13.175Z,96706.09
2022-08-29T04:14:43.139Z,96702.59
2022-08-29T04:17:12.316Z,96703.13
2022-08-29T04:19:41.410Z,96712.19
2022-08-29T04:22:11.113Z,96704.78
2022-08-29T04:24:40.141Z,96707.81
2022-08-29T04:27:08.459Z,96711.88
2022-08-29T04:29:38.626Z,96711.66
2022-08-29T04:32:07.442Z,96709.44
2022-08-29T04:34:36.113Z,96714.63
2022-08-29T04:37:04.806Z,96707.22
2022-08-29T04:39:35.729Z,96707.78
2022-08-29T04:42:04.349Z,96714.81
2022-08-29T04:44:34.449Z,96710.97
2022-08-29T04:47:02.742Z,96715.91
2022-08-29T04:49:31.827Z,96718.63
2022-08-29T04:52:00.173Z,96727.38
2022-08-29T04:54:29.527Z,96719.44
2022-08-29T04:57:05.006Z,96722.69
2022-08-29T04:59:34.037Z,96727.66
2022-08-29T05:02:02.543Z,96729.03
2022-08-29T05:04:31.829Z,96734.78
2022-08-29T05:07:00.290Z,96734.78
2022-08-29T05:09:29.572Z,96740.00
2022-08-29T05:11:59.491Z,96720.28
2022-08-29T05:14:28.380Z,96741.06
2022-08-29T05:16:57.102Z,96725.97
2022-08-29T05:19:25.390Z,96731.72
2022-08-29T05:21:58.308Z,96725.41
2022-08-29T05:24:26.615Z,96731.66
2022-08-29T05:26:55.639Z,96722.88
2022-08-29T05:29:25.503Z,96732.25
2022-08-29T05:31:53.826Z,96735.31
2022-08-29T05:34:34.034Z,96730.63
2022-08-29T05:37:05.247Z,96732.56
2022-08-29T05:39:34.561Z,96729.84
2022-08-29T05:42:03.309Z,96729.34
2022-08-29T05:44:35.378Z,96738.41
2022-08-29T05:47:05.368Z,96735.16
2022-08-29T05:49:37.172Z,96734.34
2022-08-29T05:52:06.637Z,96739.50
2022-08-29T05:54:37.918Z,96741.72
2022-08-29T05:57:06.861Z,96733.78
2022-08-29T05:59:36.977Z,96749.38
2022-08-29T06:02:08.459Z,96747.94
2022-08-29T06:04:36.894Z,96747.84
2022-08-29T06:07:06.978Z,96756.31
2022-08-29T06:09:36.435Z,96760.09
2022-08-29T06:12:06.182Z,96756.31
2022-08-29T06:14:36.215Z,96756.97
2022-08-29T06:17:08.080Z,96757.44
2022-08-29T06:19:39.473Z,96754.34
2022-08-29T06:22:10.284Z,96757.84
2022-08-29T06:24:44.383Z,96754.09
2022-08-29T06:27:14.710Z,96767.19
2022-08-29T06:29:44.447Z,96763.28
2022-08-29T06:32:13.431Z,96769.88
2022-08-29T06:34:42.173Z,96772.59
2022-08-29T06:37:10.778Z,96779.75
2022-08-29T06:39:39.806Z,96778.09
2022-08-29T06:42:08.456Z,96783.50
2022-08-29T06:44:40.188Z,96779.63
2022-08-29T06:47:12.734Z,96782.66
2022-08-29T06:49:41.329Z,96784.00
2022-08-29T06:52:10.023Z,96784.56
2022-08-29T06:54:38.854Z,96791.88
2022-08-29T06:57:07.303Z,96781.88
2022-08-29T06:59:36.884Z,96785.66
2022-08-29T07:02:05.457Z,96782.00
2022-08-29T07:04:35.625Z,96786.94
2022-08-29T07:07:05.249Z,96792.06
2022-08-29T07:09:34.383Z,96793.72
2022-08-29T07:12:03.114Z,96797.19
2022-08-29T07:14:32.001Z,96799.69
2022-08-29T07:17:00.707Z,96794.19
2022-08-29T07:19:29.824Z,96798.88
2022-08-29T07:22:00.527Z,96793.41
2022-08-29T07:24:29.555Z,96802.44
2022-08-29T07:26:57.923Z,96801.06
2022-08-29T07:29:27.067Z,96804.94
2022-08-29T07:31:55.896Z,96806.88
2022-08-29T07:34:24.292Z,96806.91
2022-08-29T07:36:53.492Z,96814.59
2022-08-29T07:39:24.562Z,96814.28
2022-08-29T07:41:53.009Z,96814.81
2022-08-29T07:44:21.809Z,96806.56
2022-08-29T07:46:50.641Z,96815.41
2022-08-29T07:49:19.289Z,96807.16
2022-08-29T07:51:48.312Z,96811.50
2022-08-29T07:54:18.814Z,96819.66
2022-08-29T07:56:49.831Z,96810.28
2022-08-29T07:59:20.182Z,96816.25
2022-08-29T08:01:49.714Z,96819.75
2022-08-29T08:04:18.252Z,96820.53
2022-08-29T08:06:48.110Z,96824.19
2022-08-29T08:09:16.512Z,96825.00
2022-08-29T08:11:44.867Z,96831.53
2022-08-29T08:14:15.143Z,96825.88
2022-08-29T08:16:44.845Z,96823.63
2022-08-29T08:19:14.127Z,96827.75
2022-08-29T08:21:49.547Z,96825.31
2022-08-29T08:24:19.989Z,96832.44
2022-08-29T08:26:50.250Z,96834.59
2022-08-29T08:29:19.954Z,96844.19
2022-08-29T08:31:51.984Z,96845.47
2022-08-29T08:34:20.722Z,96855.53
2022-08-29T08:36:50.443Z,96857.81
2022-08-29T08:39:20.936Z,96862.72
2022-08-29T08:41:57.601Z,96865.31
2022-08-29T08:44:51.467Z,96865.31
2022-08-29T08:47:27.170Z,96867.00
2022-08-29T08:50:01.066Z,96868.38
2022-08-29T08:52:38.252Z,96865.09
2022-08-29T08:55:15.463Z,96868.00
2022-08-29T08:57:51.106Z,96857.72
2022-08-29T09:00:21.611Z,96860.16
2022-08-29T09:03:03.788Z,96856.41
2022-08-29T09:05:48.589Z,96855.13
2022-08-29T09:08:30.259Z,96852.16
2022-08-29T09:11:04.562Z,96854.34
2022-08-29T09:13:46.699Z,96861.38
2022-08-29T09:16:25.459Z,96858.59
2022-08-29T09:18:57.245Z,96859.16
2022-08-29T09:21:43.698Z,96866.50
2022-08-29T09:24:21.730Z,96866.28
2022-08-29T09:26:51.022Z,96865.09
2022-08-29T09:29:21.134Z,96867.69
2022-08-29T09:32:07.284Z,96861.88
2022-08-29T09:35:04.438Z,96854.19
2022-08-29T09:37:30.371Z,96865.84
2022-08-29T09:40:02.831Z,96862.47
2022-08-29T09:42:35.776Z,96866.03
2022-08-29T09:45:16.171Z,96863.41
2022-08-29T09:47:46.447Z,96869.22
2022-08-29T09:50:24.906Z,96866.59
2022-08-29T09:52:55.411Z,96854.84
2022-08-29T09:55:29.263Z,96871.31
2022-08-29T09:58:02.698Z,96863.16
2022-08-29T10:00:35.162Z,96865.00
2022-08-29T10:03:07.321Z,96870.09
2022-08-29T10:05:41.726Z,96869.53
2022-08-29T10:08:27.510Z,96871.63
2022-08-29T10:10:58.230Z,96869.38
2022-08-29T10:13:34.898Z,96870.66
2022-08-29T10:16:13.821Z,96876.75
2022-08-29T10:18:49.773Z,96873.81
2022-08-29T10:21:30.130Z,96870.63
2022-08-29T10:24:14.697Z,96876.13
2022-08-29T10:26:53.373Z,96872.63
2022-08-29T10:29:33.257Z,96871.00
2022-08-29T10:32:17.091Z,96877.72
2022-08-29T10:35:03.182Z,96876.91
2022-08-29T10:37:44.867Z,96874.88
2022-08-29T10:40:19.897Z,96870.72
2022-08-29T10:42:53.491Z,96877.78
2022-08-29T10:45:30.673Z,96872.66
2022-08-29T10:48:05.939Z,96869.22
2022-08-29T10:50:44.414Z,96868.41
2022-08-29T10:53:20.244Z,96877.94
2022-08-29T10:55:55.174Z,96877.75
2022-08-29T10:58:37.263Z,96870.06
2022-08-29T11:01:13.954Z,96875.25
2022-08-29T11:03:49.099Z,96875.06
2022-08-29T11:06:22.681Z,96867.22
2022-08-29T11:08:58.679Z,96871.97
2022-08-29T11:11:29.957Z,96866.53
2022-08-29T11:14:05.979Z,96876.88
2022-08-29T11:16:41.044Z,96867.53
2022-08-29T11:19:17.864Z,96870.31
2022-08-29T11:21:55.531Z,96860.63
2022-08-29T11:24:34.377Z,96860.28
2022-08-29T11:27:11.038Z,96862.69
2022-08-29T11:29:47.190Z,96860.19
2022-08-29T11:32:24.696Z,96858.44
2022-08-29T11:35:08.287Z,96849.88
2022-08-29T11:38:05.330Z,96863.56
2022-08-29T11:41:26.364Z,96856.34
2022-08-29T11:43:42.672Z,96853.13
2022-08-29T11:46:14.302Z,96853.34
2022-08-29T11:48:44.758Z,96846.94
2022-08-29T11:51:31.412Z,96832.78
2022-08-29T11:54:48.713Z,96829.25
2022-08-29T11:57:53.782Z,96830.28
2022-08-29T12:00:38.049Z,96837.72
2022-08-29T12:03:47.468Z,96823.38
2022-08-29T12:06:22.703Z,96832.41
2022-08-29T12:09:01.733Z,96834.94
2022-08-29T12:12:10.775Z,96839.06
2022-08-29T12:14:42.328Z,96836.41
2022-08-29T12:17:58.102Z,96833.91
2022-08-29T12:20:40.504Z,96830.25
2022-08-29T12:23:21.177Z,96834.13
2022-08-29T12:26:09.411Z,96836.25
2022-08-29T12:28:47.947Z,96830.97
2022-08-29T12:31:31.254Z,96833.13
2022-08-29T12:34:23.447Z,96827.09
2022-08-29T12:37:28.012Z,96823.97
2022-08-29T12:40:28.114Z,96818.25
2022-08-29T12:43:12.794Z,96816.06
2022-08-29T12:45:44.400Z,96811.78
2022-08-29T12:48:21.083Z,96816.63
2022-08-29T12:50:50.398Z,96813.25
2022-08-29T12:53:20.554Z,96807.13
2022-08-29T12:55:51.893Z,96798.75
2022-08-29T12:58:38.142Z,96811.06
2022-08-29T13:01:10.891Z,96801.41
2022-08-29T13:03:41.403Z,96802.66
2022-08-29T13:06:14.520Z,96802.59
2022-08-29T13:08:43.809Z,96794.31
2022-08-29T13:11:13.702Z,96799.63
2022-08-29T13:13:42.487Z,96794.09
2022-08-29T13:16:24.847Z,96795.78
2022-08-29T13:19:10.175Z,96789.16
2022-08-29T13:21:39.501Z,96790.69
2022-08-29T13:24:13.919Z,96783.66
2022-08-29T13:27:05.610Z,96785.47
2022-08-29T13:29:38.750Z,96779.06
2022-08-29T13:32:23.988Z,96775.72
2022-08-29T13:35:09.007Z,96775.06
2022-08-29T13:37:40.744Z,96768.69
2022-08-29T13:40:32.821Z,96763.56
2022-08-29T13:43:02.639Z,96762.75
2022-08-29T13:45:31.453Z,96754.72
2022-08-29T13:48:12.696Z,96754.41
2022-08-29T13:50:42.637Z,96754.06
2022-08-29T13:53:11.736Z,96756.47
2022-08-29T13:55:42.928Z,96754.06
2022-08-29T13:58:14.997Z,96753.22
2022-08-29T14:00:44.317Z,96748.47
2022-08-29T14:03:16.817Z,96751.06
2022-08-29T14:05:48.545Z,96747.41
2022-08-29T14:08:17.789Z,96744.66
2022-08-29T14:10:47.026Z,96741.59
2022-08-29T14:13:15.441Z,96730.69
2022-08-29T14:15:44.817Z,96716.38
2022-08-29T14:18:13.709Z,96728.81
2022-08-29T14:20:42.105Z,96720.53
2022-08-29T14:23:12.535Z,96720.31
2022-08-29T14:25:40.908Z,96723.28
2022-08-29T14:28:09.667Z,96717.78
2022-08-29T14:30:42.823Z,96728.28
2022-08-29T14:33:23.785Z,96720.31
2022-08-29T14:35:53.087Z,96719.00
2022-08-29T14:38:22.874Z,96715.19
2022-08-29T14:40:52.302Z,96704.78
2022-08-29T14:43:20.851Z,96707.66
2022-08-29T14:45:50.184Z,96706.47
2022-08-29T14:48:18.735Z,96706.94
2022-08-29T14:50:47.887Z,96699.72
2022-08-29T14:53:16.719Z,96702.56
2022-08-29T14:55:46.440Z,96699.78
2022-08-29T14:58:15.794Z,96704.19
2022-08-29T15:00:44.366Z,96694.56
2022-08-29T15:03:14.480Z,96692.13
2022-08-29T15:05:43.692Z,96699.31
2022-08-29T15:08:16.102Z,96698.84
2022-08-29T15:10:45.885Z,96696.81
2022-08-29T15:13:15.432Z,96696.50
2022-08-29T15:15:44.317Z,96693.31
2022-08-29T15:18:26.018Z,96691.97
2022-08-29T15:21:04.745Z,96689.56
2022-08-29T15:23:34.185Z,96685.50
2022-08-29T15:26:04.334Z,96679.59
2022-08-29T15:28:32.708Z,96682.91
2022-08-29T15:31:01.919Z,96680.91
2022-08-29T15:33:30.343Z,96672.88
2022-08-29T15:35:59.594Z,96666.78
2022-08-29T15:38:27.935Z,96677.97
2022-08-29T15:40:57.163Z,96674.72
2022-08-29T15:43:28.256Z,96665.88
2022-08-29T15:45:59.895Z,96668.25
2022-08-29T15:48:28.690Z,96666.13
2022-08-29T15:50:57.090Z,96662.09
2022-08-29T15:53:26.530Z,96658.09
2022-08-29T15:55:54.876Z,96649.66
2022-08-29T15:58:23.631Z,96644.81
2022-08-29T16:00:53.678Z,96646.78
2022-08-29T16:03:22.085Z,96647.50
2022-08-29T16:05:51.334Z,96646.25
2022-08-29T16:08:20.159Z,96653.72
2022-08-29T16:10:50.777Z,96652.16
2022-08-29T16:13:19.898Z,96642.41
2022-08-29T16:15:49.093Z,96647.94
2022-08-29T16:18:19.612Z,96650.16
2022-08-29T16:20:48.466Z,96650.44
2022-08-29T16:23:19.016Z,96650.44
2022-08-29T16:25:49.322Z,96646.31
2022-08-29T16:28:19.147Z,96642.97
2022-08-29T16:30:50.070Z,96646.38
2022-08-29T16:33:19.818Z,96635.91
2022-08-29T16:35:48.761Z,96638.09
2022-08-29T16:38:17.839Z,96636.00
2022-08-29T16:40:46.790Z,96639.38
2022-08-29T16:43:15.418Z,96636.19
2022-08-29T16:45:44.578Z,96644.97
2022-08-29T16:48:15.454Z,96644.47
2022-08-29T16:50:47.788Z,96640.31
2022-08-29T16:53:16.198Z,96648.25
2022-08-29T16:55:45.383Z,96645.75
2022-08-29T16:58:31.474Z,96641.19
2022-08-29T17:01:00.858Z,96637.34
2022-08-29T17:03:29.356Z,96641.56
2022-08-29T17:05:59.963Z,96640.16
2022-08-29T17:08:27.274Z,96633.97
2022-08-29T17:10:55.741Z,96639.72
2022-08-29T17:13:23.105Z,96628.69
2022-08-29T17:15:50.875Z,96644.72
2022-08-29T17:18:20.720Z,96635.44
2022-08-29T17:20:49.387Z,96632.72
2022-08-29T17:23:19.556Z,96637.94
2022-08-29T17:25:47.999Z,96643.09
2022-08-29T17:28:18.684Z,96637.28
2022-08-29T17:30:56.053Z,96638.63
2022-08-29T17:33:24.483Z,96634.22
2022-08-29T17:35:54.047Z,96633.75
2022-08-29T17:38:24.318Z,96626.81
2022-08-29T17:40:57.410Z,96625.25
2022-08-29T17:43:27.390Z,96637.34
2022-08-29T17:45:57.719Z,96631.47
2022-08-29T17:48:26.146Z,96626.41
2022-08-29T17:50:54.550Z,96636.06
2022-08-29T17:53:25.038Z,96621.72
2022-08-29T17:55:53.892Z,96633.53
2022-08-29T17:58:23.302Z,96641.44
2022-08-29T18:00:52.378Z,96633.69
2022-08-29T18:03:21.725Z,96640.53
2022-08-29T18:05:50.131Z,96637.03
2022-08-29T18:08:18.525Z,96648.50
2022-08-29T18:10:48.247Z,96652.31
2022-08-29T18:13:20.993Z,96659.69
2022-08-29T18:15:52.690Z,96648.78
2022-08-29T18:18:21.343Z,96655.66
2022-08-29T18:20:50.808Z,96652.34
2022-08-29T18:23:19.311Z,96657.34
2022-08-29T18:25:49.497Z,96656.72
2022-08-29T18:28:17.999Z,96668.06
2022-08-29T18:30:46.902Z,96672.72
2022-08-29T18:33:15.346Z,96671.34
2022-08-29T18:35:44.151Z,96677.50
2022-08-29T18:38:13.214Z,96681.63
2022-08-29T18:40:41.862Z,96682.69
2022-08-29T18:43:12.163Z,96687.13
2022-08-29T18:45:43.340Z,96672.97
2022-08-29T18:48:11.884Z,96686.38
2022-08-29T18:50:41.137Z,96690.81
2022-08-29T18:53:12.635Z,96695.88
2022-08-29T18:55:47.257Z,96692.13
2022-08-29T18:58:22.375Z,96693.81
2022-08-29T19:00:51.192Z,96695.34
2022-08-29T19:03:21.097Z,96699.91
2022-08-29T19:05:52.267Z,96703.66
2022-08-29T19:08:23.565Z,96706.97
2022-08-29T19:10:53.941Z,96698.53
2022-08-29T19:13:25.590Z,96699.34
2022-08-29T19:15:56.938Z,96693.47
2022-08-29T19:18:25.999Z,96699.69
2022-08-29T19:21:02.733Z,96697.59
2022-08-29T19:23:33.266Z,96705.75
2022-08-29T19:26:04.078Z,96705.91
2022-08-29T19:28:34.283Z,96701.03
2022-08-29T19:31:04.508Z,96708.34
2022-08-29T19:33:34.154Z,96705.25
2022-08-29T19:36:03.872Z,96704.59
2022-08-29T19:38:32.839Z,96708.19
2022-08-29T19:41:01.627Z,96701.47
2022-08-29T19:43:33.430Z,96701.13
2022-08-29T19:46:09.717Z,96712.53
2022-08-29T19:48:39.268Z,96709.59
2022-08-29T19:51:10.475Z,96715.44
2022-08-29T19:53:42.808Z,96709.91
2022-08-29T19:56:13.679Z,96726.03
2022-08-29T19:58:42.633Z,96727.31
2022-08-29T20:01:12.817Z,96727.09
2022-08-29T20:03:42.625Z,96735.06
2022-08-29T20:06:12.244Z,96728.66
2022-08-29T20:08:42.996Z,96721.16
2022-08-29T20:11:12.624Z,96736.13
2022-08-29T20:13:42.244Z,96735.94
2022-08-29T20:16:16.873Z,96735.91
2022-08-29T20:18:47.394Z,96734.59
2022-08-29T20:21:19.222Z,96726.44
2022-08-29T20:23:49.448Z,96730.00
2022-08-29T20:26:19.285Z,96730.81
2022-08-29T20:28:49.432Z,96732.75
2022-08-29T20:31:20.318Z,96727.06
2022-08-29T20:33:49.569Z,96728.50
2022-08-29T20:36:38.980Z,96725.56
2022-08-29T20:39:08.738Z,96727.97
2022-08-29T20:41:37.845Z,96733.25
2022-08-29T20:44:09.970Z,96731.25
2022-08-29T20:46:41.253Z,96726.16
2022-08-29T20:49:13.862Z,96726.59
2022-08-29T20:51:44.859Z,96733.25
2022-08-29T20:54:14.185Z,96728.47
2022-08-29T20:56:42.970Z,96732.81
2022-08-29T20:59:11.533Z,96726.28
2022-08-29T21:01:41.690Z,96737.16
2022-08-29T21:04:29.571Z,96733.69
2022-08-29T21:07:00.552Z,96736.88
2022-08-29T21:09:29.463Z,96733.63
2022-08-29T21:11:58.842Z,96729.72
2022-08-29T21:14:28.448Z,96735.34
2022-08-29T21:16:58.662Z,96732.53
2022-08-29T21:19:30.608Z,96735.59
2022-08-29T21:22:01.032Z,96730.69
2022-08-29T21:24:31.374Z,96733.16
2022-08-29T21:27:00.135Z,96733.75
2022-08-29T21:29:28.750Z,96741.22
2022-08-29T21:31:59.202Z,96739.28
2022-08-29T21:34:27.630Z,96734.31
2022-08-29T21:36:56.777Z,96733.59
2022-08-29T21:39:28.563Z,96739.53
2022-08-29T21:42:02.698Z,96741.38
2022-08-29T21:44:31.959Z,96740.66
2022-08-29T21:47:03.477Z,96738.72
2022-08-29T21:49:31.863Z,96736.28
2022-08-29T21:52:01.036Z,96740.34
2022-08-29T21:54:30.187Z,96740.03
2022-08-29T21:56:58.511Z,96740.66
2022-08-29T21:59:28.638Z,96732.00
2022-08-29T22:01:57.557Z,96737.00
2022-08-29T22:04:28.901Z,96734.84
2022-08-29T22:06:59.681Z,96740.56
2022-08-29T22:09:29.731Z,96739.13
2022-08-29T22:11:59.611Z,96737.50
2022-08-29T22:14:42.986Z,96734.25
2022-08-29T22:17:12.161Z,96745.69
2022-08-29T22:19:41.978Z,96745.72
2022-08-29T22:22:11.289Z,96742.97
2022-08-29T22:24:39.717Z,96742.78
2022-08-29T22:27:09.112Z,96741.81
2022-08-29T22:29:38.003Z,96740.50
2022-08-29T22:32:07.534Z,96741.63
2022-08-29T22:34:35.942Z,96740.59
2022-08-29T22:37:05.651Z,96737.56
2022-08-29T22:39:34.840Z,96738.16
2022-08-29T22:42:03.243Z,96742.34
2022-08-29T22:44:59.829Z,96744.59
2022-08-29T22:47:21.503Z,96734.53
2022-08-29T22:49:49.818Z,96739.72
2022-08-29T22:52:20.927Z,96732.25
2022-08-29T22:54:49.747Z,96741.56
2022-08-29T22:57:20.387Z,96738.56
2022-08-29T22:59:49.540Z,96735.75
2022-08-29T23:02:20.002Z,96741.72
2022-08-29T23:04:50.324Z,96733.66
2022-08-29T23:07:20.707Z,96737.53
2022-08-29T23:09:51.039Z,96742.59
2022-08-29T23:12:19.939Z,96737.16
2022-08-29T23:14:48.832Z,96743.06
2022-08-29T23:17:18.146Z,96737.63
2022-08-29T23:19:47.117Z,96749.19
2022-08-29T23:22:20.522Z,96738.28
2022-08-29T23:24:53.797Z,96737.16
2022-08-29T23:27:29.106Z,96742.44
2022-08-29T23:29:58.420Z,96740.31
2022-08-29T23:32:28.811Z,96745.50
2022-08-29T23:34:57.734Z,96747.75
2022-08-29T23:37:27.852Z,96738.44
2022-08-29T23:39:56.681Z,96749.16
2022-08-29T23:42:25.792Z,96744.84
2022-08-29T23:44:54.979Z,96746.78
2022-08-29T23:47:23.643Z,96737.47
2022-08-29T23:49:53.034Z,96734.88
2022-08-29T23:52:21.357Z,96733.06
2022-08-29T23:54:51.663Z,96725.63
2022-08-29T23:57:19.951Z,96723.50
